Time;durP1;ratioP1;P1;durP2;ratioP2;P2;SDS_P1;SDS_P2;PMS_P1;PMS_P2;Temp;Humidity;BMP_temperature;BMP_pressure;BME280_temperature;BME280_humidity;BME280_pressure;Samples;Min_cycle;Max_cycle;Signal;HPM_P1;HPM_P2
2024/01/12 00:01:45;;;;;;;28.10;13.75;;;;;;;-142.57;100.00;55383.81;5034873;28;20437;-84
2024/01/12 00:04:11;;;;;;;30.05;14.32;;;;;;;-142.57;100.00;55430.28;5035885;28;20033;-84
2024/01/12 00:06:37;;;;;;;32.33;14.95;;;;;;;-142.57;100.00;55426.25;5036662;28;20033;-85
2024/01/12 00:09:06;;;;;;;28.35;13.10;;;;;;;-142.57;100.00;55438.38;5053600;28;20098;-81
2024/01/12 00:11:32;;;;;;;31.45;13.77;;;;;;;-142.57;100.00;55418.16;5056211;28;20096;-86
2024/01/12 00:13:57;;;;;;;28.55;14.05;;;;;;;-142.57;100.00;55442.41;5052367;28;20037;-87
2024/01/12 00:16:23;;;;;;;28.80;13.98;;;;;;;-142.57;100.00;55426.25;5039978;28;20029;-86
2024/01/12 00:18:48;;;;;;;29.40;13.85;;;;;;;-142.57;100.00;55438.38;5036600;28;20033;-86
2024/01/12 00:21:14;;;;;;;29.65;13.98;;;;;;;-142.57;100.00;55426.25;5035911;28;20076;-86
2024/01/12 00:23:39;;;;;;;30.52;13.80;;;;;;;-142.57;100.00;55420.19;5040763;28;20044;-84
2024/01/12 00:26:05;;;;;;;28.27;14.38;;;;;;;-142.57;100.00;55444.44;5049957;28;20041;-84
2024/01/12 00:28:36;;;;;;;31.33;13.88;;;;;;;-142.57;100.00;55430.28;5051287;28;20081;-83
2024/01/12 00:31:02;;;;;;;29.35;13.45;;;;;;;-142.57;100.00;55414.13;5053140;28;20044;-82
2024/01/12 00:33:28;;;;;;;25.95;12.70;;;;;;;-142.57;100.00;55422.22;5054493;28;20151;-86
2024/01/12 00:35:54;;;;;;;31.02;12.95;;;;;;;-142.57;100.00;55365.63;5054749;28;20022;-83
2024/01/12 00:38:19;;;;;;;29.10;13.27;;;;;;;-142.57;100.00;55339.38;5052978;28;20017;-81
2024/01/12 00:40:45;;;;;;;26.70;12.43;;;;;;;-142.57;100.00;55357.56;5054309;28;20061;-81
2024/01/12 00:43:14;;;;;;;25.17;12.70;;;;;;;-142.57;100.00;55365.63;5051729;28;20037;-85
2024/01/12 00:45:40;;;;;;;18.92;9.48;;;;;;;-142.57;100.00;55373.72;5042143;28;20038;-86
2024/01/12 00:48:06;;;;;;;18.00;8.05;;;;;;;-142.57;100.00;55345.44;5039488;28;20044;-85
2024/01/12 00:50:36;;;;;;;14.88;7.00;;;;;;;-142.57;100.00;55345.44;5038490;28;20041;-86
2024/01/12 00:53:02;;;;;;;13.43;6.57;;;;;;;-142.57;100.00;55377.75;5020998;28;20029;-86
2024/01/12 00:55:28;;;;;;;12.23;6.07;;;;;;;-142.57;100.00;55345.44;5041068;28;20036;-84
2024/01/12 00:57:59;;;;;;;13.80;6.50;;;;;;;-142.57;100.00;55365.63;5039342;28;20057;-79
2024/01/12 01:00:27;;;;;;;14.88;7.13;;;;;;;-142.57;100.00;55353.50;5039523;28;20025;-84
2024/01/12 01:02:56;;;;;;;16.80;8.32;;;;;;;-142.57;100.00;55333.31;5039769;28;20482;-87
2024/01/12 01:05:21;;;;;;;21.30;8.10;;;;;;;-142.57;100.00;55357.56;5043053;28;20056;-84
2024/01/12 01:07:47;;;;;;;18.80;8.43;;;;;;;-142.57;100.00;55377.75;5041556;28;20037;-84
2024/01/12 01:10:33;;;;;;;19.85;9.02;;;;;;;-142.57;100.00;55371.69;5041835;28;20427;-83
2024/01/12 01:12:58;;;;;;;20.30;9.20;;;;;;;-142.57;100.00;55333.31;5042623;28;20083;-84
2024/01/12 01:15:24;;;;;;;20.98;9.57;;;;;;;-142.57;100.00;55337.34;5039183;28;20037;-85
2024/01/12 01:17:50;;;;;;;18.85;8.82;;;;;;;-142.57;100.00;55333.31;5045828;28;20045;-83
2024/01/12 01:20:16;;;;;;;24.00;11.35;;;;;;;-142.57;100.00;55309.06;5056435;28;20043;-79
2024/01/12 01:22:42;;;;;;;22.10;10.25;;;;;;;-142.57;100.00;55365.63;5057178;28;20036;-83
2024/01/12 01:25:07;;;;;;;24.85;10.90;;;;;;;-142.57;100.00;55397.97;5057932;28;20041;-78
2024/01/12 01:27:33;;;;;;;22.45;10.02;;;;;;;-142.57;100.00;55363.63;5057173;28;20040;-81
2024/01/12 01:30:00;;;;;;;25.92;11.70;;;;;;;-142.57;100.00;55345.44;5057912;28;20105;-81
2024/01/12 01:32:28;;;;;;;20.88;10.23;;;;;;;-142.57;100.00;55321.19;5057045;28;20041;-82
2024/01/12 01:34:53;;;;;;;23.30;11.13;;;;;;;-142.57;100.00;55383.81;5057684;28;20033;-80
2024/01/12 01:37:19;;;;;;;22.15;11.10;;;;;;;-142.57;100.00;55329.28;5058222;28;20048;-81
2024/01/12 01:39:44;;;;;;;22.42;10.50;;;;;;;-142.57;100.00;55361.59;5056014;28;20044;-83
2024/01/12 01:42:10;;;;;;;21.77;9.70;;;;;;;-142.57;100.00;55313.09;5048796;28;20021;-83
2024/01/12 01:44:35;;;;;;;19.20;9.50;;;;;;;-142.57;100.00;55353.50;5058184;28;20022;-85
2024/01/12 01:47:00;;;;;;;22.83;10.05;;;;;;;-142.57;100.00;55349.47;5068096;28;20105;-86
2024/01/12 01:49:27;;;;;;;22.25;10.48;;;;;;;-142.57;100.00;55361.59;5051031;28;20057;-84
2024/01/12 01:51:53;;;;;;;20.33;9.82;;;;;;;-142.57;100.00;55353.50;5050209;28;20041;-84
2024/01/12 01:54:19;;;;;;;19.15;9.30;;;;;;;-142.57;100.00;55353.50;5051544;28;20034;-85
2024/01/12 01:56:45;;;;;;;24.80;10.00;;;;;;;-142.57;100.00;55345.44;5049452;28;20048;-84
2024/01/12 01:59:11;;;;;;;18.50;8.75;;;;;;;-142.57;100.00;55369.69;5041182;28;20045;-87
2024/01/12 02:01:37;;;;;;;22.00;10.27;;;;;;;-142.57;100.00;55361.59;5040189;28;20033;-83
2024/01/12 02:04:03;;;;;;;18.50;8.80;;;;;;;-142.57;100.00;55345.44;5040488;28;20059;-84
2024/01/12 02:06:29;;;;;;;16.40;8.45;;;;;;;-142.57;100.00;55349.47;5053755;28;20026;-82
2024/01/12 02:08:56;;;;;;;23.00;9.30;;;;;;;-142.57;100.00;55335.34;5053602;28;20052;-82
2024/01/12 02:11:22;;;;;;;20.55;9.35;;;;;;;-142.57;100.00;55367.66;5034869;28;20037;-86
2024/01/12 02:13:48;;;;;;;17.63;9.43;;;;;;;-142.57;100.00;55357.56;5035780;28;20049;-85
2024/01/12 02:16:14;;;;;;;20.83;9.95;;;;;;;-142.57;100.00;55335.34;5037130;28;20029;-86
2024/01/12 02:18:39;;;;;;;19.13;9.13;;;;;;;-142.57;100.00;55309.06;5035254;28;20048;-85
2024/01/12 02:21:05;;;;;;;19.27;9.45;;;;;;;-142.57;100.00;55349.47;5036849;28;20041;-86
2024/01/12 02:23:30;;;;;;;18.40;8.40;;;;;;;-142.57;100.00;55303.00;5044579;28;20076;-84
2024/01/12 02:25:56;;;;;;;16.77;8.77;;;;;;;-142.57;100.00;55284.81;5053855;28;20088;-85
2024/01/12 02:28:22;;;;;;;21.15;9.55;;;;;;;-142.57;100.00;55343.41;5073497;28;20044;-86
2024/01/12 02:30:47;;;;;;;17.02;8.60;;;;;;;-142.57;100.00;55296.94;5047210;28;20069;-86
2024/01/12 02:33:13;;;;;;;17.92;8.52;;;;;;;-142.57;100.00;55359.56;5036192;28;20045;-85
2024/01/12 02:35:39;;;;;;;14.27;7.35;;;;;;;-142.57;100.00;55307.03;5036464;28;20038;-85
2024/01/12 02:38:05;;;;;;;15.00;7.22;;;;;;;-142.57;100.00;55329.28;5036908;28;20093;-87
2024/01/12 02:40:30;;;;;;;14.00;6.70;;;;;;;-142.57;100.00;55345.44;5035058;28;20076;-85
2024/01/12 02:42:56;;;;;;;11.90;6.05;;;;;;;-142.57;100.00;55397.97;5036553;28;20037;-86
2024/01/12 02:45:22;;;;;;;16.42;6.78;;;;;;;-142.57;100.00;55337.34;5034840;28;20057;-85
2024/01/12 02:47:47;;;;;;;13.63;5.85;;;;;;;-142.57;100.00;55361.59;5039152;28;20486;-84
2024/01/12 02:50:13;;;;;;;12.05;5.60;;;;;;;-142.57;100.00;55357.56;5036879;28;20141;-87
2024/01/12 02:52:39;;;;;;;11.55;5.88;;;;;;;-142.57;100.00;55321.19;5036694;28;20033;-87
2024/01/12 02:55:05;;;;;;;13.55;6.80;;;;;;;-142.57;100.00;55300.97;5036901;28;20103;-86
2024/01/12 02:57:34;;;;;;;17.38;7.63;;;;;;;-142.57;100.00;55298.97;5036191;28;20037;-85
2024/01/12 03:00:00;;;;;;;15.13;7.55;;;;;;;-142.57;100.00;55321.19;5036349;28;20387;-87
2024/01/12 03:02:26;;;;;;;18.98;8.48;;;;;;;-142.57;100.00;55288.88;5036690;28;20094;-85
2024/01/12 03:04:51;;;;;;;16.17;8.45;;;;;;;-142.57;100.00;55294.94;5037285;28;20025;-85
2024/01/12 03:07:17;;;;;;;18.80;9.35;;;;;;;-142.57;100.00;55288.88;5036968;28;20065;-86
2024/01/12 03:09:42;;;;;;;15.52;7.68;;;;;;;-142.57;100.00;55296.94;5038484;28;20034;-85
2024/01/12 03:12:08;;;;;;;15.73;7.60;;;;;;;-142.57;100.00;55296.94;5039067;28;20132;-85
2024/01/12 03:14:34;;;;;;;15.05;6.68;;;;;;;-142.57;100.00;55272.69;5035128;28;20367;-86
2024/01/12 03:16:59;;;;;;;11.88;5.97;;;;;;;-142.57;100.00;55280.78;5035694;28;20033;-87
2024/01/12 03:19:25;;;;;;;10.00;5.00;;;;;;;-142.57;100.00;55292.91;5034509;28;20390;-85
2024/01/12 03:21:54;;;;;;;9.10;4.20;;;;;;;-142.57;100.00;55296.94;5035811;28;20064;-84
2024/01/12 03:24:19;;;;;;;8.63;4.28;;;;;;;-142.57;100.00;55325.22;5034593;28;20033;-87
2024/01/12 03:26:46;;;;;;;8.75;4.72;;;;;;;-142.57;100.00;55329.28;5050247;28;20017;-84
2024/01/12 03:29:12;;;;;;;7.07;3.45;;;;;;;-142.57;99.57;55329.28;5032326;28;20172;-84
2024/01/12 03:31:44;;;;;;;7.53;3.83;;;;;;;-142.57;98.34;55343.41;5034865;28;20030;-85
2024/01/12 03:34:09;;;;;;;7.20;3.65;;;;;;;-142.57;97.04;55323.22;5051593;28;20379;-84
2024/01/12 03:36:35;;;;;;;6.32;3.63;;;;;;;-142.57;95.95;55317.16;5035699;28;20072;-84
2024/01/12 03:39:00;;;;;;;7.63;3.38;;;;;;;-142.57;95.61;55323.22;5035335;28;20103;-88
2024/01/12 03:41:26;;;;;;;6.70;3.10;;;;;;;-142.57;93.71;55327.25;5035620;28;20037;-86
2024/01/12 03:43:51;;;;;;;5.43;2.72;;;;;;;-142.57;92.67;55335.34;5036124;28;20025;-85
2024/01/12 03:46:17;;;;;;;7.63;3.47;;;;;;;-142.57;91.96;55321.19;5036130;28;20030;-85
2024/01/12 03:48:46;;;;;;;8.55;3.53;;;;;;;-142.57;91.60;55357.56;5036576;28;20030;-83
2024/01/12 03:51:11;;;;;;;7.45;3.22;;;;;;;-142.57;91.30;55309.06;5035958;28;20026;-86
2024/01/12 03:53:37;;;;;;;5.28;3.08;;;;;;;-142.57;91.40;55337.34;5035320;28;20045;-80
2024/01/12 03:56:04;;;;;;;4.60;2.70;;;;;;;-142.57;90.15;55333.31;5038241;28;20227;-86
2024/01/12 03:58:32;;;;;;;6.13;2.75;;;;;;;-142.57;89.90;55321.19;5040241;28;20494;-83
2024/01/12 04:00:57;;;;;;;7.35;3.30;;;;;;;-142.57;89.28;55357.56;5040988;28;20160;-86
2024/01/12 04:03:23;;;;;;;6.63;3.63;;;;;;;-142.57;88.68;55345.44;5042213;28;20033;-82
2024/01/12 04:05:48;;;;;;;6.50;3.17;;;;;;;-142.57;88.39;55347.44;5040801;28;20037;-83
2024/01/12 04:08:14;;;;;;;8.07;4.15;;;;;;;-142.57;89.51;55337.34;5039065;28;20038;-84
2024/01/12 04:10:39;;;;;;;12.60;4.45;;;;;;;-142.57;89.02;55337.34;5041542;28;20478;-83
2024/01/12 04:13:05;;;;;;;7.05;3.63;;;;;;;-142.57;89.51;55335.34;5041007;28;20038;-85
2024/01/12 04:15:31;;;;;;;10.38;4.90;;;;;;;-142.57;89.21;55321.19;5039803;28;20031;-83
2024/01/12 04:17:56;;;;;;;11.10;4.90;;;;;;;-142.57;89.29;55349.47;5040995;28;20394;-86
2024/01/12 04:20:22;;;;;;;12.68;5.18;;;;;;;-142.57;92.82;55284.81;5041796;28;20056;-83
2024/01/12 04:22:47;;;;;;;11.05;5.22;;;;;;;-142.57;95.87;55286.84;5041086;28;20099;-85
2024/01/12 04:25:22;;;;;;;12.38;5.28;;;;;;;-142.57;98.50;55262.59;5040598;28;20108;-84
2024/01/12 04:27:47;;;;;;;12.07;5.75;;;;;;;-142.57;100.00;55264.63;5042570;28;20493;-86
2024/01/12 04:30:13;;;;;;;11.50;5.70;;;;;;;-142.57;100.00;55272.69;5040714;28;20037;-84
2024/01/12 04:32:38;;;;;;;10.00;4.53;;;;;;;-142.57;100.00;55248.47;5041367;28;20094;-85
2024/01/12 04:35:04;;;;;;;11.38;5.30;;;;;;;-142.57;100.00;55262.59;5041394;28;20036;-87
2024/01/12 04:37:30;;;;;;;7.13;4.43;;;;;;;-142.57;100.00;55248.47;5041008;28;20064;-83
2024/01/12 04:39:55;;;;;;;9.55;4.22;;;;;;;-142.57;100.00;55230.28;5040339;28;20030;-85
2024/01/12 04:42:21;;;;;;;8.73;3.92;;;;;;;-142.57;100.00;55272.69;5040454;28;20071;-84
2024/01/12 04:44:46;;;;;;;13.02;4.57;;;;;;;-142.57;99.90;55282.81;5040636;28;20037;-80
2024/01/12 04:47:12;;;;;;;7.72;3.83;;;;;;;-142.57;98.94;55292.91;5041606;28;20147;-87
2024/01/12 04:49:38;;;;;;;6.57;3.80;;;;;;;-142.57;98.92;55266.63;5043050;28;20029;-83
2024/01/12 04:52:03;;;;;;;7.82;3.72;;;;;;;-142.57;98.99;55280.78;5043274;28;20034;-85
2024/01/12 04:54:29;;;;;;;9.90;4.57;;;;;;;-142.57;99.29;55276.75;5041217;28;20041;-86
2024/01/12 04:56:54;;;;;;;7.85;4.38;;;;;;;-142.57;98.58;55266.63;5041625;28;20044;-87
2024/01/12 04:59:20;;;;;;;7.78;3.83;;;;;;;-142.57;98.53;55325.22;5041256;28;20475;-86
2024/01/12 05:01:46;;;;;;;8.95;4.50;;;;;;;-142.57;99.67;55317.16;5041897;28;20040;-85
2024/01/12 05:04:12;;;;;;;10.75;5.22;;;;;;;-142.57;99.47;55292.91;5044171;28;20057;-86
2024/01/12 05:06:38;;;;;;;12.57;6.30;;;;;;;-142.57;100.00;55268.66;5049464;28;20037;-80
2024/01/12 05:09:06;;;;;;;13.23;6.20;;;;;;;-142.57;100.00;55262.59;5055894;28;20098;-81
2024/01/12 05:11:39;;;;;;;14.45;7.55;;;;;;;-142.57;100.00;55238.34;5048980;28;20156;-87
2024/01/12 05:14:05;;;;;;;19.73;8.63;;;;;;;-142.57;100.00;55248.47;5037111;28;20045;-84
2024/01/12 05:16:35;;;;;;;18.35;7.90;;;;;;;-142.57;100.00;55208.06;5041912;28;20018;-84
2024/01/12 05:19:02;;;;;;;15.48;7.50;;;;;;;-142.57;100.00;55175.72;5040572;28;20108;-85
2024/01/12 05:21:28;;;;;;;18.23;8.00;;;;;;;-142.57;100.00;55226.22;5039433;28;20065;-82
2024/01/12 05:23:53;;;;;;;18.40;8.63;;;;;;;-142.57;100.00;55206.03;5040771;28;20033;-82
2024/01/12 05:26:20;;;;;;;17.30;8.73;;;;;;;-142.57;100.00;55266.63;5037813;28;20124;-84
2024/01/12 05:28:45;;;;;;;24.55;11.15;;;;;;;-142.57;100.00;55260.56;5037221;28;20029;-87
2024/01/12 05:31:11;;;;;;;26.92;11.90;;;;;;;-142.57;100.00;55244.41;5037905;28;20113;-86
2024/01/12 05:33:36;;;;;;;25.27;11.50;;;;;;;-142.57;100.00;55214.09;5039309;28;20476;-86
2024/01/12 05:36:03;;;;;;;24.73;10.30;;;;;;;-142.57;100.00;55159.56;5040915;28;20025;-85
2024/01/12 05:38:28;;;;;;;22.95;10.02;;;;;;;-142.57;100.00;55256.53;5043262;28;20030;-84
2024/01/12 05:40:54;;;;;;;23.17;10.13;;;;;;;-142.57;100.00;55276.75;5040299;28;20033;-86
2024/01/12 05:43:20;;;;;;;22.23;9.70;;;;;;;-142.57;100.00;55246.44;5039595;28;20029;-85
2024/01/12 05:45:45;;;;;;;24.98;10.60;;;;;;;-142.57;100.00;55278.75;5039605;28;20065;-87
2024/01/12 05:48:12;;;;;;;25.10;10.55;;;;;;;-142.57;100.00;55280.78;5038727;28;20104;-87
2024/01/12 05:50:37;;;;;;;26.48;10.80;;;;;;;-142.57;100.00;55286.84;5037333;28;20042;-84
2024/01/12 05:53:05;;;;;;;20.88;10.75;;;;;;;-142.57;100.00;55260.56;5038816;28;20359;-87
2024/01/12 05:55:30;;;;;;;23.52;9.65;;;;;;;-142.57;100.00;55292.91;5037710;28;20049;-86
2024/01/12 05:57:56;;;;;;;20.98;9.73;;;;;;;-142.57;100.00;55313.09;5038544;28;20036;-92
2024/01/12 06:00:24;;;;;;;22.95;8.57;;;;;;;-142.57;100.00;55280.78;5038064;28;20017;-85
2024/01/12 06:02:50;;;;;;;15.82;7.93;;;;;;;-142.57;100.00;55262.59;5036475;28;20041;-82
2024/01/12 06:05:16;;;;;;;15.55;8.07;;;;;;;-142.57;100.00;55262.59;5036738;28;20037;-83
2024/01/12 06:07:44;;;;;;;20.30;8.98;;;;;;;-142.57;100.00;55294.94;5037823;28;20160;-83
2024/01/12 06:10:10;;;;;;;24.95;8.27;;;;;;;-142.57;100.00;55288.88;5037112;28;20048;-86
2024/01/12 06:12:36;;;;;;;18.65;7.60;;;;;;;-142.57;100.00;55305.03;5036643;28;20017;-85
2024/01/12 06:15:01;;;;;;;20.60;8.15;;;;;;;-142.57;100.00;55270.69;5037135;28;20038;-82
2024/01/12 06:17:27;;;;;;;17.35;7.93;;;;;;;-142.57;100.00;55266.63;5038521;28;20026;-80
2024/01/12 06:19:52;;;;;;;26.50;7.68;;;;;;;-142.57;100.00;55309.06;5040080;28;20040;-84
2024/01/12 06:22:18;;;;;;;23.25;8.05;;;;;;;-142.57;100.00;55296.94;5037095;28;20033;-80
2024/01/12 06:24:43;;;;;;;30.90;8.95;;;;;;;-142.57;100.00;55254.50;5037652;28;20099;-83
2024/01/12 06:27:09;;;;;;;32.00;10.38;;;;;;;-142.57;100.00;55256.53;5039707;28;20537;-85
2024/01/12 06:29:41;;;;;;;18.00;8.73;;;;;;;-142.57;100.00;55242.41;5037091;28;20104;-86
2024/01/12 06:32:06;;;;;;;28.35;9.48;;;;;;;-142.57;100.00;55270.69;5038690;28;20025;-87
2024/01/12 06:34:32;;;;;;;32.05;9.55;;;;;;;-142.57;100.00;55228.25;5038650;28;20052;-84
2024/01/12 06:37:00;;;;;;;25.50;9.50;;;;;;;-142.57;100.00;55260.56;5037320;28;20076;-84
2024/01/12 06:39:26;;;;;;;25.98;10.05;;;;;;;-142.57;100.00;55256.53;5036122;28;20074;-84
2024/01/12 06:41:55;;;;;;;29.83;10.10;;;;;;;-142.57;100.00;55240.38;5037091;28;20075;-86
2024/01/12 06:44:21;;;;;;;30.15;10.18;;;;;;;-142.57;100.00;55256.53;5036057;28;20041;-83
2024/01/12 06:46:51;;;;;;;31.73;10.02;;;;;;;-142.57;100.00;55224.22;5037286;28;20046;-84
2024/01/12 06:49:16;;;;;;;29.25;10.05;;;;;;;-142.57;100.00;55232.28;5037534;28;20037;-84
2024/01/12 06:51:42;;;;;;;24.17;9.68;;;;;;;-142.57;100.00;55256.53;5039693;28;20073;-83
2024/01/12 06:54:07;;;;;;;24.30;9.30;;;;;;;-142.57;100.00;55268.66;5037181;28;20033;-84
2024/01/12 06:56:37;;;;;;;19.63;9.07;;;;;;;-142.57;100.00;55256.53;5037356;28;20042;-84
2024/01/12 06:59:04;;;;;;;21.77;9.13;;;;;;;-142.57;100.00;55276.75;5038639;28;20035;-86
2024/01/12 07:01:29;;;;;;;31.88;11.13;;;;;;;-142.57;100.00;55305.03;5036291;28;20025;-85
2024/01/12 07:03:55;;;;;;;24.92;11.73;;;;;;;-142.57;100.00;55311.09;5035797;28;20048;-81
2024/01/12 07:06:20;;;;;;;29.85;13.13;;;;;;;-142.57;100.00;55284.81;5040703;28;20026;-84
2024/01/12 07:08:46;;;;;;;33.03;13.75;;;;;;;-142.57;100.00;55333.31;5037168;28;20414;-85
2024/01/12 07:11:14;;;;;;;34.25;13.15;;;;;;;-142.57;100.00;55349.47;5038643;28;20034;-86
2024/01/12 07:13:40;;;;;;;30.83;12.23;;;;;;;-142.57;100.00;55327.25;5043103;28;20112;-84
2024/01/12 07:16:05;;;;;;;36.25;12.68;;;;;;;-142.57;100.00;55333.31;5040368;28;20463;-84
2024/01/12 07:18:31;;;;;;;24.40;10.60;;;;;;;-142.57;100.00;55351.50;5055405;28;20068;-82
2024/01/12 07:21:02;;;;;;;21.95;10.25;;;;;;;-142.57;100.00;55351.50;5041051;28;20513;-85
2024/01/12 07:23:35;;;;;;;29.10;10.25;;;;;;;-142.57;100.00;55393.91;5038744;28;20038;-85
2024/01/12 07:26:03;;;;;;;25.58;9.75;;;;;;;-142.57;100.00;55363.63;5039970;28;20049;-84
2024/01/12 07:28:32;;;;;;;27.75;9.38;;;;;;;-142.57;100.00;55466.66;5040783;28;20514;-84
2024/01/12 07:30:57;;;;;;;31.92;10.68;;;;;;;-142.57;95.12;55539.38;5039927;28;20031;-86
2024/01/12 07:33:23;;;;;;;26.63;10.57;;;;;;;-142.57;90.19;55551.50;5039827;28;20065;-86
2024/01/12 07:35:49;;;;;;;21.13;10.25;;;;;;;-142.57;84.85;55539.38;5038153;28;20036;-86
2024/01/12 07:38:14;;;;;;;21.17;10.20;;;;;;;-142.57;84.74;55523.22;5040598;28;20143;-86
2024/01/12 07:40:40;;;;;;;31.92;11.05;;;;;;;-142.57;82.64;55547.47;5037335;28;20426;-85
2024/01/12 07:43:08;;;;;;;30.52;11.77;;;;;;;-142.57;82.29;55583.84;5035867;28;20033;-84
2024/01/12 07:45:34;;;;;;;20.88;10.10;;;;;;;-142.57;78.74;55697.00;5038366;28;20140;-85
2024/01/12 07:48:02;;;;;;;27.08;11.18;;;;;;;-142.57;73.13;55749.53;5037960;28;20094;-87
2024/01/12 07:50:28;;;;;;;26.88;10.98;;;;;;;-142.57;72.04;55824.28;5037649;28;20006;-84
2024/01/12 07:52:53;;;;;;;24.65;11.77;;;;;;;-142.57;68.35;55895.00;5038492;28;20151;-84
2024/01/12 07:55:19;;;;;;;33.15;12.95;;;;;;;-142.57;64.39;55996.03;5036297;28;20030;-79
2024/01/12 07:57:45;;;;;;;27.38;12.77;;;;;;;-142.57;61.70;56056.66;5052223;28;20474;-82
2024/01/12 08:00:11;;;;;;;28.13;12.27;;;;;;;-142.57;58.65;56127.38;5034605;28;20032;-83
2024/01/12 08:02:40;;;;;;;32.33;11.80;;;;;;;-142.57;57.10;56032.41;5054751;28;20043;-81
2024/01/12 08:05:06;;;;;;;29.83;13.48;;;;;;;-142.57;58.27;55955.63;5048975;28;20041;-84
2024/01/12 08:07:32;;;;;;;33.45;11.95;;;;;;;-142.57;59.25;55953.59;5052277;28;20030;-80
2024/01/12 08:09:58;;;;;;;33.00;14.23;;;;;;;-142.57;59.44;55870.75;5051721;28;20044;-82
2024/01/12 08:12:24;;;;;;;25.77;12.85;;;;;;;-142.57;62.33;55806.09;5051376;28;20021;-85
2024/01/12 08:14:49;;;;;;;28.35;13.68;;;;;;;-142.57;64.21;55759.63;5037113;28;20033;-89
2024/01/12 08:17:15;;;;;;;32.60;13.93;;;;;;;-142.57;72.85;55604.03;5037588;28;20048;-83
2024/01/12 08:19:40;;;;;;;33.42;13.60;;;;;;;-142.57;78.81;55555.56;5056263;28;20045;-86
2024/01/12 08:22:07;;;;;;;31.85;13.10;;;;;;;-142.57;78.26;55591.91;5037668;28;20038;-87
2024/01/12 08:24:32;;;;;;;28.10;11.60;;;;;;;-142.57;77.29;55628.28;5038220;28;20116;-87
2024/01/12 08:26:58;;;;;;;25.25;12.27;;;;;;;-142.57;80.24;55543.44;5034122;28;20391;-83
2024/01/12 08:29:24;;;;;;;35.92;13.00;;;;;;;-142.57;82.66;55541.41;5028720;28;20112;-81
2024/01/12 08:31:51;;;;;;;25.80;11.25;;;;;;;-142.57;81.70;55600.00;5032080;28;20541;-83
2024/01/12 08:34:18;;;;;;;25.75;12.27;;;;;;;-142.57;79.33;55587.88;5031719;28;20699;-82
2024/01/12 08:36:44;;;;;;;22.02;11.32;;;;;;;-142.57;79.19;55632.34;5032003;28;20068;-84
2024/01/12 08:39:15;;;;;;;26.27;12.10;;;;;;;-142.57;79.97;55626.28;5032004;28;20128;-82
2024/01/12 08:41:43;;;;;;;24.90;11.60;;;;;;;-142.57;80.32;55624.25;5014957;28;20033;-81
2024/01/12 08:44:11;;;;;;;29.00;11.88;;;;;;;-142.57;79.64;55650.50;5033731;28;20021;-82
2024/01/12 08:46:37;;;;;;;35.15;12.35;;;;;;;-142.57;80.93;55602.03;5035893;28;20064;-81
2024/01/12 08:49:03;;;;;;;26.65;11.82;;;;;;;-142.57;83.05;55567.69;5035688;28;20041;-82
2024/01/12 08:51:28;;;;;;;29.05;12.23;;;;;;;-142.57;82.84;55638.41;5036960;28;20040;-81
2024/01/12 08:53:55;;;;;;;21.10;10.55;;;;;;;-142.57;79.95;55672.75;5034920;28;20049;-82
2024/01/12 08:56:21;;;;;;;26.23;10.70;;;;;;;-142.57;79.60;55676.78;5036624;28;20068;-82
2024/01/12 08:58:46;;;;;;;22.13;11.27;;;;;;;-142.57;81.53;55668.69;5035470;28;20033;-81
2024/01/12 09:01:13;;;;;;;21.42;11.48;;;;;;;-142.57;82.18;55616.16;5033931;28;20072;-83
2024/01/12 09:03:39;;;;;;;27.98;12.23;;;;;;;-142.57;81.02;55678.81;5035553;28;20118;-84
2024/01/12 09:06:04;;;;;;;24.33;11.60;;;;;;;-142.57;81.78;55616.16;5035218;28;20090;-83
2024/01/12 09:08:30;;;;;;;30.90;11.13;;;;;;;-142.57;80.32;55682.84;5033173;28;20475;-82
2024/01/12 09:10:56;;;;;;;32.55;12.48;;;;;;;-142.57;79.35;55733.34;5035328;28;20060;-81
2024/01/12 09:13:21;;;;;;;30.67;13.02;;;;;;;-142.57;81.86;55676.78;5036654;28;20031;-84
2024/01/12 09:15:47;;;;;;;29.67;13.10;;;;;;;-142.57;80.77;55680.81;5035668;28;20061;-80
2024/01/12 09:18:12;;;;;;;36.40;15.23;;;;;;;-142.57;78.74;55731.34;5036161;28;20049;-83
2024/01/12 09:20:38;;;;;;;30.23;15.18;;;;;;;-142.57;78.36;55761.66;5035595;28;20445;-82
2024/01/12 09:23:05;;;;;;;33.95;15.90;;;;;;;-142.57;78.73;55717.19;5035617;28;20041;-84
2024/01/12 09:25:32;;;;;;;34.05;16.80;;;;;;;-142.57;78.37;55737.41;5035365;28;20030;-82
2024/01/12 09:27:58;;;;;;;34.85;17.85;;;;;;;-142.57;80.15;55703.06;5035691;28;20048;-83
2024/01/12 09:30:23;;;;;;;37.70;16.65;;;;;;;-142.57;80.53;55749.53;5035626;28;20029;-83
2024/01/12 09:32:49;;;;;;;40.95;17.58;;;;;;;-142.57;82.77;55741.44;5035014;28;20041;-81
2024/01/12 09:35:15;;;;;;;37.88;16.67;;;;;;;-142.57;83.10;55705.06;5035692;28;20387;-81
2024/01/12 09:37:40;;;;;;;40.78;18.63;;;;;;;-142.57;81.48;55773.78;5036314;28;20045;-83
2024/01/12 09:40:07;;;;;;;43.08;19.05;;;;;;;-142.57;82.73;55765.69;5035939;28;20132;-83
2024/01/12 09:42:33;;;;;;;40.13;19.20;;;;;;;-142.57;81.37;55763.66;5034938;28;20494;-84
2024/01/12 09:45:01;;;;;;;38.17;18.40;;;;;;;-142.57;82.00;55749.53;5049692;28;20041;-83
2024/01/12 09:47:27;;;;;;;36.38;17.80;;;;;;;-142.57;81.96;55763.66;5033968;28;20391;-83
2024/01/12 09:49:53;;;;;;;38.13;19.02;;;;;;;-142.57;81.08;55741.44;5034769;28;20072;-82
2024/01/12 09:52:19;;;;;;;36.40;17.23;;;;;;;-142.57;83.75;55723.25;5034436;28;20056;-83
2024/01/12 09:54:52;;;;;;;38.28;17.25;;;;;;;-142.57;83.60;55729.31;5033950;28;20041;-84
2024/01/12 09:57:19;;;;;;;37.10;18.75;;;;;;;-142.57;86.02;55705.06;5050995;28;20533;-83
2024/01/12 09:59:48;;;;;;;40.35;18.65;;;;;;;-142.57;88.64;55747.50;5033200;28;20026;-82
2024/01/12 10:02:15;;;;;;;38.00;18.20;;;;;;;-142.57;91.24;55654.56;5032892;28;20613;-82
2024/01/12 10:04:41;;;;;;;43.03;20.05;;;;;;;-142.57;95.93;55664.66;5034121;28;20597;-82
2024/01/12 10:07:07;;;;;;;43.85;18.83;;;;;;;-142.57;95.07;55725.28;5034216;28;20467;-82
2024/01/12 10:09:33;;;;;;;44.25;18.88;;;;;;;-142.57;95.71;55688.91;5034137;28;20539;-82
2024/01/12 10:11:59;;;;;;;38.72;20.40;;;;;;;-142.57;96.03;55701.03;5035524;28;20108;-83
2024/01/12 10:14:25;;;;;;;39.00;20.02;;;;;;;-142.57;99.08;55674.75;5036126;28;20117;-82
2024/01/12 10:16:58;;;;;;;39.22;19.33;;;;;;;-142.57;97.11;55686.88;5035382;28;20064;-82
2024/01/12 10:19:25;;;;;;;41.85;18.90;;;;;;;-142.57;97.32;55692.94;5049458;28;20072;-82
2024/01/12 10:21:51;;;;;;;40.33;19.17;;;;;;;-142.57;97.35;55713.16;5034056;28;20041;-84
2024/01/12 10:24:18;;;;;;;42.20;19.50;;;;;;;-142.57;97.27;55692.94;5034008;28;20053;-83
2024/01/12 10:26:45;;;;;;;46.85;20.42;;;;;;;-142.57;100.00;55703.06;5034354;28;20037;-84
2024/01/12 10:29:11;;;;;;;46.95;19.95;;;;;;;-142.57;100.00;55664.66;5034493;28;20041;-82
2024/01/12 10:31:42;;;;;;;42.25;19.60;;;;;;;-142.57;100.00;55753.56;5033671;28;20060;-83
2024/01/12 10:34:11;;;;;;;40.30;19.50;;;;;;;-142.57;100.00;55717.19;5032512;28;20029;-83
2024/01/12 10:36:40;;;;;;;37.67;19.33;;;;;;;-142.57;100.00;55749.53;5032872;28;20026;-83
2024/01/12 10:39:09;;;;;;;41.80;20.02;;;;;;;-142.57;100.00;55767.72;5032969;28;20442;-82
2024/01/12 10:41:35;;;;;;;40.13;19.70;;;;;;;-142.57;100.00;55755.59;5032405;28;20553;-82
2024/01/12 10:44:04;;;;;;;38.45;19.10;;;;;;;-142.57;99.75;55793.97;5031430;28;20179;-83
2024/01/12 10:46:47;;;;;;;41.20;20.88;;;;;;;-142.57;100.00;55777.81;5033184;28;20117;-82
2024/01/12 10:49:15;;;;;;;;;;;;;;;-142.57;100.00;55749.53;5033828;28;20041;-83
2024/01/12 10:52:12;;;;;;;44.22;21.15;;;;;;;-142.57;100.00;55793.97;5033859;28;19924;-83
2024/01/12 10:54:59;;;;;;;49.22;22.35;;;;;;;-142.57;100.00;55721.22;5007157;28;20049;-82
2024/01/12 10:57:26;;;;;;;44.33;21.52;;;;;;;-142.57;100.00;55749.53;5015650;28;20037;-82
2024/01/12 10:59:53;;;;;;;47.17;21.90;;;;;;;-142.57;100.00;55769.72;5033134;28;20044;-83